createdAt,value
2016-02-24T00:00:03.111Z,20.23
2016-02-24T00:01:03.067Z,20.23
2016-02-24T00:02:03.053Z,20.25
2016-02-24T00:03:03.041Z,20.21
2016-02-24T00:04:03.012Z,20.21
2016-02-24T00:05:03.000Z,20.21
2016-02-24T00:06:02.971Z,20.25
2016-02-24T00:07:02.989Z,20.21
2016-02-24T00:08:02.977Z,20.23
2016-02-24T00:09:02.932Z,20.33
2016-02-24T00:10:02.903Z,20.24
2016-02-24T00:11:02.921Z,20.24
2016-02-24T00:12:02.893Z,20.23
2016-02-24T00:13:02.879Z,20.23
2016-02-24T00:14:02.852Z,20.25
2016-02-24T00:15:02.854Z,20.28
2016-02-24T00:16:02.809Z,20.25
2016-02-24T00:17:02.781Z,20.25
2016-02-24T00:18:02.831Z,20.25
2016-02-24T00:19:02.770Z,20.25
2016-02-24T00:20:02.774Z,20.24
2016-02-24T00:21:02.729Z,20.2
2016-02-24T00:22:02.732Z,20.25
2016-02-24T00:23:02.719Z,20.23
2016-02-24T00:24:02.707Z,20.2
2016-02-24T00:25:02.678Z,20.18
2016-02-24T00:26:02.681Z,20.2
2016-02-24T00:27:02.653Z,20.24
2016-02-24T00:28:01.889Z,20.25
2016-02-24T00:29:02.611Z,20.25
2016-02-24T00:30:01.879Z,20.25
2016-02-24T00:31:02.616Z,20.27
2016-02-24T00:32:02.556Z,20.21
2016-02-24T00:33:02.544Z,20.2
2016-02-24T00:34:02.561Z,20.23
2016-02-24T00:35:02.516Z,20.18
2016-02-24T00:36:02.525Z,20.15
2016-02-24T00:37:02.480Z,20.25
2016-02-24T00:38:02.468Z,20.23
2016-02-24T00:39:02.501Z,20.23
2016-02-24T00:40:02.457Z,20.24
2016-02-24T00:41:02.429Z,20.24
2016-02-24T00:42:02.415Z,20.24
2016-02-24T00:43:02.387Z,20.1
2016-02-24T00:44:02.374Z,20.28
2016-02-24T00:45:02.409Z,20.24
2016-02-24T00:46:02.349Z,20.28
2016-02-24T00:47:02.351Z,20.2
2016-02-24T00:48:02.307Z,20.21
2016-02-24T00:49:02.341Z,20.25
2016-02-24T00:50:02.265Z,20.23
2016-02-24T00:51:02.253Z,20.27
2016-02-24T00:52:02.255Z,20.23
2016-02-24T00:53:02.227Z,20.25
2016-02-24T00:54:02.198Z,20.25
2016-02-24T00:55:02.186Z,20.2
2016-02-24T00:56:02.172Z,20.21
2016-02-24T00:57:02.159Z,20.3
2016-02-24T00:58:02.130Z,20.27
2016-02-24T00:59:02.118Z,20.21
2016-02-24T01:00:02.105Z,20.24
2016-02-24T01:01:02.091Z,20.21
2016-02-24T01:02:02.080Z,20.27
2016-02-24T01:03:02.066Z,20.28
2016-02-24T01:04:02.038Z,20.16
2016-02-24T01:05:02.056Z,20.1
2016-02-24T01:06:02.012Z,20.13
2016-02-24T01:07:01.988Z,20.15
2016-02-24T01:08:01.991Z,20.12
2016-02-24T01:09:01.962Z,20.18
2016-02-24T01:10:01.949Z,20.13
2016-02-24T01:11:01.937Z,20.23
2016-02-24T01:12:01.907Z,20.09
2016-02-24T01:13:01.895Z,20.09
2016-02-24T01:14:01.881Z,20.12
2016-02-24T01:15:01.869Z,20.1
2016-02-24T01:16:01.856Z,20.15
2016-02-24T01:17:01.827Z,20.03
2016-02-24T01:18:01.814Z,19.98
2016-02-24T01:19:01.801Z,20.16
2016-02-24T01:20:01.789Z,20.03
2016-02-24T01:21:01.759Z,20.12
2016-02-24T01:22:01.762Z,20.02
2016-02-24T01:23:01.765Z,19.97
2016-02-24T01:24:01.722Z,20.02
2016-02-24T01:25:01.692Z,20.02
2016-02-24T01:26:01.695Z,20.08
2016-02-24T01:27:01.666Z,20.02
2016-02-24T01:28:01.654Z,20.03
2016-02-24T01:29:01.625Z,20
2016-02-24T01:30:01.628Z,20.03
2016-02-24T01:31:01.615Z,20.12
2016-02-24T01:32:01.586Z,20.1
2016-02-24T01:33:01.574Z,20.12
2016-02-24T01:34:01.545Z,20.12
2016-02-24T01:35:01.547Z,20.03
2016-02-24T01:36:01.519Z,20.02
2016-02-24T01:37:01.521Z,20.02
2016-02-24T01:38:01.494Z,20.13
2016-02-24T01:39:01.480Z,19.97
2016-02-24T01:40:01.468Z,20
2016-02-24T01:41:01.485Z,20.13
2016-02-24T01:42:01.441Z,20
2016-02-24T01:43:01.443Z,20.03
2016-02-24T01:44:01.385Z,19.98
2016-02-24T01:45:01.387Z,19.98
2016-02-24T01:46:01.373Z,20.02
2016-02-24T01:47:01.345Z,20
2016-02-24T01:48:01.332Z,20.03
2016-02-24T01:49:01.320Z,19.97
2016-02-24T01:50:01.291Z,20.02
2016-02-24T01:51:01.294Z,20.03
2016-02-24T01:52:01.265Z,20.03
2016-02-24T01:53:01.237Z,20.09
2016-02-24T01:54:01.224Z,20
2016-02-24T01:55:01.195Z,20.03
2016-02-24T01:56:01.182Z,20.02
2016-02-24T01:57:01.186Z,20.03
2016-02-24T01:58:01.156Z,20
2016-02-24T01:59:01.144Z,19.95
2016-02-24T02:00:01.147Z,20.05
2016-02-24T02:01:01.102Z,20
2016-02-24T02:02:01.105Z,19.98
2016-02-24T02:03:01.107Z,19.98
2016-02-24T02:04:01.079Z,20.06
2016-02-24T02:05:01.034Z,20.03
2016-02-24T02:06:01.037Z,20.05
2016-02-24T02:07:01.008Z,19.94
2016-02-24T02:08:01.011Z,19.93
2016-02-24T02:09:00.968Z,20.06
2016-02-24T02:10:00.954Z,20.02
2016-02-24T02:11:00.957Z,19.95
2016-02-24T02:12:00.929Z,20.03
2016-02-24T02:13:00.916Z,20.08
2016-02-24T02:14:00.902Z,20.02
2016-02-24T02:15:00.889Z,20
2016-02-24T02:16:00.862Z,19.97
2016-02-24T02:17:00.848Z,19.97
2016-02-24T02:18:00.726Z,20.05
2016-02-24T02:19:00.807Z,20.03
2016-02-24T02:20:00.793Z,20.02
2016-02-24T02:21:00.781Z,20.02
2016-02-24T02:22:00.784Z,20.03
2016-02-24T02:23:00.739Z,20
2016-02-24T02:24:00.711Z,20.05
2016-02-24T02:25:00.697Z,20.03
2016-02-24T02:26:00.717Z,20
2016-02-24T02:27:00.672Z,20.02
2016-02-24T02:28:00.659Z,20.03
2016-02-24T02:29:00.662Z,20.05
2016-02-24T02:30:00.634Z,20.03
2016-02-24T02:31:00.605Z,20.05
2016-02-24T02:32:00.608Z,19.91
2016-02-24T02:33:00.626Z,19.9
2016-02-24T02:34:00.550Z,19.91
2016-02-24T02:35:00.538Z,20
2016-02-24T02:36:00.540Z,19.91
2016-02-24T02:37:00.496Z,19.91
2016-02-24T02:38:00.482Z,19.93
2016-02-24T02:39:00.469Z,19.97
2016-02-24T02:40:00.457Z,20.06
2016-02-24T02:41:00.444Z,19.94
2016-02-24T02:42:00.415Z,19.9
2016-02-24T02:43:00.402Z,19.94
2016-02-24T02:44:00.374Z,19.93
2016-02-24T02:45:00.360Z,19.9
2016-02-24T02:46:00.363Z,19.91
2016-02-24T02:47:00.351Z,19.9
2016-02-24T02:48:00.338Z,19.91
2016-02-24T02:49:00.309Z,19.94
2016-02-24T02:50:00.296Z,19.9
2016-02-24T02:51:00.251Z,20
2016-02-24T02:52:00.271Z,19.94
2016-02-24T02:53:00.226Z,19.9
2016-02-24T02:54:00.213Z,19.94
2016-02-24T02:55:00.201Z,19.91
2016-02-24T02:56:00.203Z,19.88
2016-02-24T02:57:00.159Z,19.95
2016-02-24T02:58:00.131Z,19.95
2016-02-24T02:59:00.117Z,19.98
2016-02-24T03:00:00.104Z,19.94
2016-02-24T03:01:00.091Z,19.93
2016-02-24T03:02:00.078Z,19.91
2016-02-24T03:03:00.066Z,19.94
2016-02-24T03:04:00.052Z,19.9
2016-02-24T03:05:00.024Z,19.91
2016-02-24T03:05:59.996Z,19.88
2016-02-24T03:06:59.982Z,19.94
2016-02-24T03:07:59.970Z,19.9
2016-02-24T03:08:59.957Z,19.91
2016-02-24T03:09:59.944Z,19.87
2016-02-24T03:10:59.916Z,19.94
2016-02-24T03:11:59.918Z,19.93
2016-02-24T03:12:59.890Z,19.9
2016-02-24T03:13:59.877Z,19.94
2016-02-24T03:14:59.848Z,19.9
2016-02-24T03:15:59.851Z,19.87
2016-02-24T03:16:59.823Z,19.91
2016-02-24T03:17:59.842Z,19.91
2016-02-24T03:18:59.782Z,20
2016-02-24T03:19:59.768Z,19.9
2016-02-24T03:20:59.756Z,19.91
2016-02-24T03:21:59.743Z,19.94
2016-02-24T03:22:59.714Z,19.94
2016-02-24T03:23:59.701Z,19.91
2016-02-24T03:24:59.688Z,19.9
2016-02-24T03:25:59.675Z,19.93
2016-02-24T03:26:59.647Z,19.86
2016-02-24T03:27:59.665Z,19.91
2016-02-24T03:28:59.621Z,19.94
2016-02-24T03:29:59.607Z,19.93
2016-02-24T03:30:59.595Z,19.94
2016-02-24T03:31:59.582Z,19.91
2016-02-24T03:32:59.553Z,19.9
2016-02-24T03:33:59.525Z,19.95
2016-02-24T03:34:59.528Z,19.91
2016-02-24T03:35:59.498Z,19.88
2016-02-24T03:36:59.486Z,19.98
2016-02-24T03:37:59.473Z,19.84
2016-02-24T03:38:59.445Z,19.93
2016-02-24T03:39:59.445Z,19.95
2016-02-24T03:40:59.389Z,19.94
2016-02-24T03:41:59.379Z,19.9
2016-02-24T03:42:59.338Z,19.9
2016-02-24T03:43:59.329Z,19.87
2016-02-24T03:44:59.273Z,19.91
2016-02-24T03:45:59.273Z,19.9
2016-02-24T03:46:59.240Z,19.94
2016-02-24T03:47:59.238Z,19.9
2016-02-24T03:48:59.205Z,19.93
2016-02-24T03:49:59.203Z,19.9
2016-02-24T03:50:59.173Z,19.93
2016-02-24T03:51:59.160Z,19.91
2016-02-24T03:52:59.128Z,19.88
2016-02-24T03:53:59.115Z,19.93
2016-02-24T03:54:59.100Z,19.91
2016-02-24T03:55:59.118Z,19.84
2016-02-24T03:56:59.058Z,19.88
2016-02-24T03:57:59.044Z,19.87
2016-02-24T03:58:59.030Z,19.9
2016-02-24T03:59:59.001Z,19.94
2016-02-24T04:00:58.988Z,19.88
2016-02-24T04:01:58.959Z,19.83
2016-02-24T04:02:58.977Z,19.83
2016-02-24T04:03:58.948Z,19.88
2016-02-24T04:04:58.906Z,19.88
2016-02-24T04:05:58.910Z,19.86
2016-02-24T04:06:58.881Z,19.91
2016-02-24T04:07:58.884Z,19.86
2016-02-24T04:08:58.840Z,19.87
2016-02-24T04:09:58.842Z,19.87
2016-02-24T04:10:58.814Z,19.86
2016-02-24T04:11:58.661Z,19.84
2016-02-24T04:12:58.788Z,19.79
2016-02-24T04:13:58.759Z,19.79
2016-02-24T04:14:58.747Z,19.83
2016-02-24T04:15:58.749Z,19.83
2016-02-24T04:16:58.720Z,19.87
2016-02-24T04:17:58.692Z,19.87
2016-02-24T04:18:58.694Z,19.83
2016-02-24T04:19:58.650Z,19.83
2016-02-24T04:20:58.637Z,19.8
2016-02-24T04:21:58.641Z,19.86
2016-02-24T04:22:58.611Z,19.84
2016-02-24T04:23:58.614Z,19.86
2016-02-24T04:24:58.571Z,19.78
2016-02-24T04:25:58.557Z,19.79
2016-02-24T04:26:58.560Z,19.79
2016-02-24T04:27:58.547Z,19.8
2016-02-24T04:28:58.535Z,19.78
2016-02-24T04:29:58.490Z,19.86
2016-02-24T04:30:58.523Z,19.8
2016-02-24T04:31:58.465Z,19.8
2016-02-24T04:32:58.435Z,19.83
2016-02-24T04:33:58.438Z,19.8
2016-02-24T04:34:58.410Z,19.79
2016-02-24T04:35:58.381Z,19.84
2016-02-24T04:36:58.398Z,19.84
2016-02-24T04:37:58.371Z,19.86
2016-02-24T04:38:58.342Z,19.86
2016-02-24T04:39:58.329Z,19.79
2016-02-24T04:40:58.316Z,19.78
2016-02-24T04:41:58.303Z,19.83
2016-02-24T04:42:58.275Z,19.78
2016-02-24T04:43:58.247Z,19.79
2016-02-24T04:44:58.250Z,19.8
2016-02-24T04:45:58.220Z,19.79
2016-02-24T04:46:58.222Z,19.79
2016-02-24T04:47:58.195Z,19.78
2016-02-24T04:48:58.166Z,19.76
2016-02-24T04:49:58.169Z,19.78
2016-02-24T04:50:58.140Z,19.78
2016-02-24T04:51:58.127Z,19.78
2016-02-24T04:52:58.130Z,19.79
2016-02-24T04:53:58.089Z,19.79
2016-02-24T04:54:58.077Z,19.79
2016-02-24T04:55:58.064Z,19.79
2016-02-24T04:56:58.035Z,19.84
2016-02-24T04:57:58.022Z,19.83
2016-02-24T04:58:58.009Z,19.76
2016-02-24T04:59:57.980Z,19.8
2016-02-24T05:00:57.967Z,19.79
2016-02-24T05:01:57.986Z,19.83
2016-02-24T05:02:57.942Z,19.75
2016-02-24T05:03:57.929Z,19.78
2016-02-24T05:04:57.900Z,19.79
2016-02-24T05:05:57.888Z,19.8
2016-02-24T05:06:57.874Z,19.83
2016-02-24T05:07:57.861Z,19.78
2016-02-24T05:08:57.833Z,19.83
2016-02-24T05:09:57.820Z,19.8
2016-02-24T05:10:57.807Z,19.8
2016-02-24T05:11:57.779Z,19.79
2016-02-24T05:12:57.766Z,19.8
2016-02-24T05:13:57.752Z,19.78
2016-02-24T05:14:57.771Z,19.76
2016-02-24T05:15:57.727Z,19.8
2016-02-24T05:16:57.715Z,19.78
2016-02-24T05:17:57.685Z,19.8
2016-02-24T05:18:57.688Z,19.8
2016-02-24T05:19:57.643Z,19.73
2016-02-24T05:20:57.631Z,19.75
2016-02-24T05:21:57.617Z,19.72
2016-02-24T05:22:57.621Z,19.8
2016-02-24T05:23:57.592Z,19.78
2016-02-24T05:24:57.564Z,19.75
2016-02-24T05:25:57.551Z,19.83
2016-02-24T05:26:57.537Z,19.79
2016-02-24T05:27:57.509Z,19.78
2016-02-24T05:28:57.512Z,19.75
2016-02-24T05:29:57.483Z,19.73
2016-02-24T05:30:57.455Z,19.76
2016-02-24T05:31:57.472Z,19.73
2016-02-24T05:32:57.272Z,19.78
2016-02-24T05:33:57.416Z,19.78
2016-02-24T05:34:57.402Z,19.8
2016-02-24T05:35:57.375Z,19.83
2016-02-24T05:36:57.361Z,19.75
2016-02-24T05:37:57.348Z,19.75
2016-02-24T05:38:57.180Z,19.76
2016-02-24T05:39:57.307Z,19.79
2016-02-24T05:40:57.294Z,19.76
2016-02-24T05:41:57.281Z,19.72
2016-02-24T05:42:57.268Z,19.72
2016-02-24T05:43:57.240Z,19.66
2016-02-24T05:44:57.226Z,19.76
2016-02-24T05:45:57.214Z,19.75
2016-02-24T05:46:57.201Z,19.76
2016-02-24T05:47:57.172Z,19.73
2016-02-24T05:48:57.159Z,19.73
2016-02-24T05:49:57.146Z,19.73
2016-02-24T05:50:57.118Z,19.75
2016-02-24T05:51:57.104Z,19.75
2016-02-24T05:52:57.092Z,19.79
2016-02-24T05:53:57.064Z,19.76
2016-02-24T05:54:57.082Z,19.72
2016-02-24T05:55:57.038Z,19.78
2016-02-24T05:56:57.025Z,19.69
2016-02-24T05:57:57.028Z,19.8
2016-02-24T05:58:56.983Z,19.76
2016-02-24T05:59:56.955Z,19.72
2016-02-24T06:00:56.957Z,19.75
2016-02-24T06:01:56.960Z,19.72
2016-02-24T06:02:56.915Z,19.76
2016-02-24T06:03:56.903Z,19.83
2016-02-24T06:04:56.889Z,19.75
2016-02-24T06:05:56.877Z,19.79
2016-02-24T06:06:56.849Z,19.78
2016-02-24T06:07:56.819Z,19.76
2016-02-24T06:08:56.823Z,19.72
2016-02-24T06:09:56.795Z,19.7
2016-02-24T06:10:56.781Z,19.7
2016-02-24T06:11:56.784Z,19.75
2016-02-24T06:12:56.772Z,19.76
2016-02-24T06:13:56.728Z,19.66
2016-02-24T06:14:56.699Z,19.72
2016-02-24T06:15:56.686Z,19.75
2016-02-24T06:16:56.673Z,19.76
2016-02-24T06:17:56.660Z,19.8
2016-02-24T06:18:56.647Z,19.75
2016-02-24T06:19:56.619Z,19.76
2016-02-24T06:20:56.637Z,19.73
2016-02-24T06:21:56.577Z,19.78
2016-02-24T06:22:56.580Z,19.76
2016-02-24T06:23:56.552Z,19.7
2016-02-24T06:24:56.554Z,19.78
2016-02-24T06:25:56.525Z,19.72
2016-02-24T06:26:56.496Z,19.75
2016-02-24T06:27:56.499Z,19.72
2016-02-24T06:28:56.470Z,19.72
2016-02-24T06:29:56.442Z,19.66
2016-02-24T06:30:56.429Z,19.75
2016-02-24T06:31:56.448Z,19.63
2016-02-24T06:32:56.404Z,19.7
2016-02-24T06:33:56.390Z,19.69
2016-02-24T06:34:56.362Z,19.7
2016-02-24T06:35:56.348Z,19.69
2016-02-24T06:36:56.321Z,19.69
2016-02-24T06:37:56.339Z,19.68
2016-02-24T06:38:56.310Z,19.78
2016-02-24T06:39:56.281Z,19.65
2016-02-24T06:40:56.253Z,19.7
2016-02-24T06:41:56.240Z,19.78
2016-02-24T06:42:56.242Z,19.66
2016-02-24T06:43:56.253Z,19.69
2016-02-24T06:44:56.210Z,19.7
2016-02-24T06:45:55.869Z,19.7
2016-02-24T06:46:59.426Z,19.7
2016-02-24T06:47:56.217Z,19.7
2016-02-24T06:48:56.126Z,19.7
2016-02-24T06:49:56.113Z,19.72
2016-02-24T06:50:56.085Z,19.73
2016-02-24T06:51:56.072Z,19.78
2016-02-24T06:52:56.074Z,19.73
2016-02-24T06:53:56.030Z,19.66
2016-02-24T06:54:56.049Z,19.7
2016-02-24T06:55:55.989Z,19.73
2016-02-24T06:56:55.976Z,19.69
2016-02-24T06:57:55.993Z,19.68
2016-02-24T06:58:55.935Z,19.78
2016-02-24T06:59:55.921Z,19.61
2016-02-24T07:00:55.909Z,19.7
2016-02-24T07:01:55.896Z,19.66
2016-02-24T07:02:55.868Z,19.66
2016-02-24T07:03:55.854Z,19.72
2016-02-24T07:04:55.840Z,19.73
2016-02-24T07:05:55.844Z,19.63
2016-02-24T07:06:55.800Z,19.66
2016-02-24T07:07:55.786Z,19.73
2016-02-24T07:08:55.774Z,19.78
2016-02-24T07:09:55.766Z,19.73
2016-02-24T07:10:55.752Z,19.75
2016-02-24T07:11:55.725Z,19.66
2016-02-24T07:12:55.727Z,19.7
2016-02-24T07:13:55.698Z,19.76
2016-02-24T07:14:57.872Z,19.7
2016-02-24T07:15:55.657Z,19.78
2016-02-24T07:16:55.628Z,19.68
2016-02-24T07:17:55.615Z,19.63
2016-02-24T07:18:55.619Z,19.7
2016-02-24T07:19:55.605Z,19.66
2016-02-24T07:20:55.560Z,19.66
2016-02-24T07:21:55.548Z,19.72
2016-02-24T07:22:55.535Z,19.66
2016-02-24T07:23:55.522Z,19.66
2016-02-24T07:24:55.493Z,19.66
2016-02-24T07:25:55.496Z,19.7
2016-02-24T07:26:55.468Z,19.73
2016-02-24T07:27:55.439Z,19.75
2016-02-24T07:28:55.443Z,19.68
2016-02-24T07:29:55.413Z,19.72
2016-02-24T07:30:55.401Z,19.69
2016-02-24T07:31:55.387Z,19.7
2016-02-24T07:32:55.359Z,19.66
2016-02-24T07:33:55.362Z,19.73
2016-02-24T07:34:55.333Z,19.66
2016-02-24T07:35:55.320Z,19.65
2016-02-24T07:36:55.306Z,19.69
2016-02-24T07:37:55.278Z,19.69
2016-02-24T07:38:55.281Z,19.69
2016-02-24T07:39:55.252Z,19.68
2016-02-24T07:40:55.224Z,19.65
2016-02-24T07:41:55.211Z,19.68
2016-02-24T07:42:55.197Z,19.69
2016-02-24T07:43:55.185Z,19.69
2016-02-24T07:44:55.156Z,19.69
2016-02-24T07:45:55.159Z,19.66
2016-02-24T07:46:55.130Z,19.73
2016-02-24T07:47:55.102Z,19.68
2016-02-24T07:48:55.105Z,19.68
2016-02-24T07:49:55.092Z,19.66
2016-02-24T07:50:55.047Z,19.65
2016-02-24T07:51:55.035Z,19.66
2016-02-24T07:52:55.022Z,19.72
2016-02-24T07:53:55.025Z,19.61
2016-02-24T07:54:54.980Z,19.66
2016-02-24T07:55:55.093Z,19.68
2016-02-24T07:56:54.971Z,19.69
2016-02-24T07:57:54.941Z,19.72
2016-02-24T07:58:54.929Z,19.68
2016-02-24T07:59:54.916Z,19.76
2016-02-24T08:00:54.903Z,19.75
2016-02-24T08:01:54.718Z,19.75
2016-02-24T08:02:54.861Z,19.7
2016-02-24T08:03:54.849Z,19.75
2016-02-24T08:04:54.679Z,19.68
2016-02-24T08:05:54.822Z,19.7
2016-02-24T08:06:54.779Z,19.75
2016-02-24T08:07:54.765Z,19.66
2016-02-24T08:08:54.753Z,19.75
2016-02-24T08:09:54.755Z,19.7
2016-02-24T08:10:54.726Z,19.73
2016-02-24T08:11:54.698Z,19.73
2016-02-24T08:12:54.686Z,19.7
2016-02-24T08:13:54.688Z,19.75
2016-02-24T08:14:54.659Z,19.66
2016-02-24T08:15:54.630Z,19.63
2016-02-24T08:16:54.633Z,19.75
2016-02-24T08:17:54.604Z,19.72
2016-02-24T08:18:54.591Z,19.73
2016-02-24T08:19:54.579Z,19.66
2016-02-24T08:20:54.566Z,19.78
2016-02-24T08:21:54.537Z,19.72
2016-02-24T08:22:54.508Z,19.72
2016-02-24T08:23:54.496Z,19.73
2016-02-24T08:24:54.499Z,19.75
2016-02-24T08:25:54.470Z,19.66
2016-02-24T08:26:54.457Z,19.78
2016-02-24T08:27:54.429Z,19.72
2016-02-24T08:28:54.431Z,19.7
2016-02-24T08:29:54.403Z,19.78
2016-02-24T08:30:54.390Z,19.75
2016-02-24T08:31:54.361Z,19.72
2016-02-24T08:32:54.348Z,19.75
2016-02-24T08:33:54.351Z,19.75
2016-02-24T08:34:54.323Z,19.8
2016-02-24T08:35:54.293Z,19.78
2016-02-24T08:36:54.296Z,19.8
2016-02-24T08:37:54.268Z,19.73
2016-02-24T08:38:54.255Z,19.76
2016-02-24T08:39:54.226Z,19.83
2016-02-24T08:40:54.229Z,19.76
2016-02-24T08:41:54.200Z,19.73
2016-02-24T08:42:54.172Z,19.84
2016-02-24T08:43:54.175Z,19.76
2016-02-24T08:44:54.146Z,19.73
2016-02-24T08:45:54.149Z,19.72
2016-02-24T08:46:54.105Z,19.7
2016-02-24T08:47:54.123Z,19.75
2016-02-24T08:48:54.078Z,19.7
2016-02-24T08:49:54.066Z,19.69
2016-02-24T08:50:54.038Z,19.72
2016-02-24T08:51:54.024Z,19.75
2016-02-24T08:52:54.011Z,19.68
2016-02-24T08:53:53.999Z,19.73
2016-02-24T08:54:53.969Z,19.8
2016-02-24T08:55:53.972Z,19.84
2016-02-24T08:56:53.944Z,19.7
2016-02-24T08:57:53.932Z,19.66
2016-02-24T08:58:53.918Z,19.68
2016-02-24T08:59:53.905Z,19.7
2016-02-24T09:00:53.877Z,19.76
2016-02-24T09:01:53.863Z,19.7
2016-02-24T09:02:53.835Z,19.78
2016-02-24T09:03:53.838Z,19.78
2016-02-24T09:04:53.809Z,19.76
2016-02-24T09:05:53.796Z,19.78
2016-02-24T09:06:53.784Z,19.69
2016-02-24T09:07:53.754Z,19.76
2016-02-24T09:08:53.773Z,19.75
2016-02-24T09:09:53.729Z,19.76
2016-02-24T09:10:53.701Z,19.76
2016-02-24T09:11:53.687Z,19.76
2016-02-24T09:12:55.909Z,19.8
2016-02-24T09:13:57.537Z,19.76
2016-02-24T09:14:53.648Z,19.83
2016-02-24T09:15:56.104Z,19.79
2016-02-24T09:16:57.154Z,19.83
2016-02-24T09:17:57.610Z,19.8
2016-02-24T09:18:57.659Z,19.91
2016-02-24T09:19:57.881Z,19.91
2016-02-24T09:20:57.649Z,19.7
2016-02-24T09:21:57.464Z,19.55
2016-02-24T09:22:57.686Z,19.15
2016-02-24T09:23:57.719Z,19.02
2016-02-24T09:24:57.363Z,18.83
2016-02-24T09:25:53.459Z,18.72
2016-02-24T09:26:53.447Z,18.73
2016-02-24T09:27:53.449Z,18.59
2016-02-24T09:28:53.405Z,18.59
2016-02-24T09:29:53.393Z,18.5
2016-02-24T09:30:53.363Z,18.49
2016-02-24T09:31:53.366Z,18.52
2016-02-24T09:32:53.338Z,18.4
2016-02-24T09:33:53.324Z,18.5
2016-02-24T09:34:53.311Z,18.44
2016-02-24T09:35:53.298Z,18.31
2016-02-24T09:36:53.254Z,18.22
2016-02-24T09:37:53.257Z,18.07
2016-02-24T09:38:56.948Z,18.03
2016-02-24T09:39:56.919Z,18.15
2016-02-24T09:40:53.625Z,18.15
2016-02-24T09:41:56.642Z,18.1
2016-02-24T09:42:57.209Z,18.02
2016-02-24T09:43:57.555Z,18.24
2016-02-24T09:44:57.057Z,18.39
2016-02-24T09:45:53.107Z,18.57
2016-02-24T09:46:53.094Z,18.64
2016-02-24T09:47:53.081Z,18.77
2016-02-24T09:48:53.053Z,18.94
2016-02-24T09:49:53.055Z,18.98
2016-02-24T09:50:53.027Z,18.99
2016-02-24T09:51:53.014Z,19.05
2016-02-24T09:52:52.985Z,19.06
2016-02-24T09:53:52.972Z,19.15
2016-02-24T09:54:52.944Z,19.14
2016-02-24T09:55:52.931Z,19.2
2016-02-24T09:56:52.918Z,19.28
2016-02-24T09:57:52.905Z,19.21
2016-02-24T09:58:52.877Z,19.13
2016-02-24T09:59:52.863Z,19.31
2016-02-24T10:00:52.851Z,19.28
2016-02-24T10:01:52.837Z,19.21
2016-02-24T10:02:52.809Z,19.31
2016-02-24T10:03:52.639Z,19.29
2016-02-24T10:04:52.783Z,19.25
2016-02-24T10:05:52.770Z,19.29
2016-02-24T10:06:52.742Z,19.25
2016-02-24T10:07:52.729Z,19.36
2016-02-24T10:08:52.715Z,19.25
2016-02-24T10:09:52.687Z,19.28
2016-02-24T10:10:52.659Z,19.32
2016-02-24T10:11:52.661Z,19.36
2016-02-24T10:12:52.648Z,19.38
2016-02-24T10:13:52.620Z,19.38
2016-02-24T10:14:52.607Z,19.36
2016-02-24T10:15:52.594Z,19.42
2016-02-24T10:16:52.581Z,19.42
2016-02-24T10:17:52.553Z,19.35
2016-02-24T10:18:52.539Z,19.36
2016-02-24T10:19:52.527Z,19.4
2016-02-24T10:20:52.498Z,19.35
2016-02-24T10:21:52.485Z,19.39
2016-02-24T10:22:52.472Z,19.35
2016-02-24T10:23:52.459Z,19.36
2016-02-24T10:24:52.430Z,19.39
2016-02-24T10:25:52.402Z,19.38
2016-02-24T10:26:52.405Z,19.43
2016-02-24T10:27:52.376Z,19.43
2016-02-24T10:28:52.363Z,19.4
2016-02-24T10:29:52.335Z,19.39
2016-02-24T10:30:52.337Z,19.42
2016-02-24T10:31:52.309Z,19.42
2016-02-24T10:32:52.296Z,19.42
2016-02-24T10:33:52.282Z,19.38
2016-02-24T10:34:52.271Z,19.46
2016-02-24T10:35:52.241Z,19.43
2016-02-24T10:36:52.229Z,19.4
2016-02-24T10:37:52.215Z,19.35
2016-02-24T10:38:52.203Z,19.4
2016-02-24T10:39:52.174Z,19.42
2016-02-24T10:40:52.145Z,19.47
2016-02-24T10:41:52.132Z,19.39
2016-02-24T10:42:52.120Z,19.46
2016-02-24T10:43:52.106Z,19.48
2016-02-24T10:44:52.095Z,19.53
2016-02-24T10:45:52.081Z,19.47
2016-02-24T10:46:51.895Z,19.47
2016-02-24T10:47:52.039Z,19.43
2016-02-24T10:48:52.026Z,19.48
2016-02-24T10:49:52.013Z,19.46
2016-02-24T10:50:51.985Z,19.46
2016-02-24T10:51:52.003Z,19.38
2016-02-24T10:52:51.959Z,19.38
2016-02-24T10:53:51.931Z,19.39
2016-02-24T10:54:51.917Z,19.39
2016-02-24T10:55:51.904Z,19.39
2016-02-24T10:56:51.892Z,19.43
2016-02-24T10:57:51.879Z,19.53
2016-02-24T10:58:51.849Z,19.48
2016-02-24T10:59:51.838Z,19.51
2016-02-24T11:00:51.824Z,19.43
2016-02-24T11:01:51.796Z,19.51
2016-02-24T11:02:51.783Z,19.48
2016-02-24T11:03:51.770Z,19.48
2016-02-24T11:04:51.757Z,19.5
2016-02-24T11:05:51.729Z,19.48
2016-02-24T11:06:51.715Z,19.5
2016-02-24T11:07:51.702Z,19.5
2016-02-24T11:08:51.689Z,19.57
2016-02-24T11:09:51.661Z,19.53
2016-02-24T11:10:51.664Z,19.5
2016-02-24T11:11:51.635Z,19.53
2016-02-24T11:12:51.607Z,19.53
2016-02-24T11:13:51.594Z,19.51
2016-02-24T11:14:51.581Z,19.51
2016-02-24T11:15:51.568Z,19.54
2016-02-24T11:16:51.556Z,19.54
2016-02-24T11:17:51.526Z,19.53
2016-02-24T11:18:51.513Z,19.54
2016-02-24T11:19:51.517Z,19.55
2016-02-24T11:20:51.487Z,19.55
2016-02-24T11:21:51.474Z,19.57
2016-02-24T11:22:51.447Z,19.53
2016-02-24T11:23:51.433Z,19.47
2016-02-24T11:24:51.405Z,19.58
2016-02-24T11:25:51.407Z,19.63
2016-02-24T11:26:51.378Z,19.48
2016-02-24T11:27:51.366Z,19.61
2016-02-24T11:28:51.353Z,19.53
2016-02-24T11:29:51.355Z,19.6
2016-02-24T11:30:51.310Z,19.61
2016-02-24T11:31:51.299Z,19.55
2016-02-24T11:32:51.285Z,19.48
2016-02-24T11:33:51.256Z,19.54
2016-02-24T11:34:51.260Z,19.48
2016-02-24T11:35:51.231Z,19.61
2016-02-24T11:36:51.202Z,19.57
2016-02-24T11:37:51.190Z,19.42
2016-02-24T11:38:51.192Z,19.54
2016-02-24T11:39:51.163Z,19.55
2016-02-24T11:40:51.135Z,19.66
2016-02-24T11:41:51.137Z,19.55
2016-02-24T11:42:51.125Z,19.53
2016-02-24T11:43:51.081Z,19.57
2016-02-24T11:44:51.067Z,19.57
2016-02-24T11:45:51.054Z,19.6
2016-02-24T11:46:51.042Z,19.58
2016-02-24T11:47:51.028Z,19.53
2016-02-24T11:48:51.017Z,19.55
2016-02-24T11:49:51.003Z,19.58
2016-02-24T11:50:50.989Z,19.57
2016-02-24T11:51:50.961Z,19.58
2016-02-24T11:52:50.948Z,19.58
2016-02-24T11:53:50.920Z,19.66
2016-02-24T11:54:50.907Z,19.6
2016-02-24T11:55:50.894Z,19.53
2016-02-24T11:56:50.880Z,19.58
2016-02-24T11:57:50.853Z,19.63
2016-02-24T11:58:50.855Z,19.66
2016-02-24T11:59:50.826Z,19.55
2016-02-24T12:00:50.813Z,19.61
2016-02-24T12:01:50.801Z,19.54
2016-02-24T12:02:50.772Z,19.55
2016-02-24T12:03:50.775Z,19.57
2016-02-24T12:04:50.748Z,19.53
2016-02-24T12:05:50.720Z,19.55
2016-02-24T12:06:50.722Z,19.47
2016-02-24T12:07:50.694Z,19.55
2016-02-24T12:08:50.665Z,19.61
2016-02-24T12:09:50.668Z,19.53
2016-02-24T12:10:50.639Z,19.54
2016-02-24T12:11:50.611Z,19.53
2016-02-24T12:12:50.598Z,19.55
2016-02-24T12:13:50.585Z,19.47
2016-02-24T12:14:50.556Z,19.54
2016-02-24T12:15:50.559Z,19.54
2016-02-24T12:16:50.546Z,19.47
2016-02-24T12:17:50.517Z,19.42
2016-02-24T12:18:50.505Z,19.5
2016-02-24T12:19:50.492Z,19.42
2016-02-24T12:20:50.479Z,19.55
2016-02-24T12:21:50.450Z,19.53
2016-02-24T12:22:50.453Z,19.55
2016-02-24T12:23:50.440Z,19.54
2016-02-24T12:24:50.411Z,19.48
2016-02-24T12:25:50.399Z,19.42
2016-02-24T12:26:50.370Z,19.48
2016-02-24T12:27:50.357Z,19.58
2016-02-24T12:28:50.344Z,19.55
2016-02-24T12:29:50.315Z,19.61
2016-02-24T12:30:50.302Z,19.53
2016-02-24T12:31:50.321Z,19.57
2016-02-24T12:32:50.261Z,19.54
2016-02-24T12:33:50.248Z,19.57
2016-02-24T12:34:50.234Z,19.55
2016-02-24T12:35:50.222Z,19.57
2016-02-24T12:36:50.209Z,19.53
2016-02-24T12:37:50.211Z,19.48
2016-02-24T12:38:50.167Z,19.54
2016-02-24T12:39:50.171Z,19.57
2016-02-24T12:40:50.142Z,19.51
2016-02-24T12:41:50.128Z,19.54
2016-02-24T12:42:50.132Z,19.48
2016-02-24T12:43:50.087Z,19.5
2016-02-24T12:44:50.075Z,19.51
2016-02-24T12:45:50.062Z,19.57
2016-02-24T12:46:50.031Z,19.57
2016-02-24T12:47:50.024Z,19.51
2016-02-24T12:48:49.985Z,19.48
2016-02-24T12:49:49.961Z,19.43
2016-02-24T12:50:49.938Z,19.57
2016-02-24T12:51:49.900Z,19.54
2016-02-24T12:52:49.884Z,19.55
2016-02-24T12:53:49.883Z,19.46
2016-02-24T12:54:49.849Z,19.54
2016-02-24T12:55:49.834Z,19.54
2016-02-24T12:56:49.801Z,19.5